Time;durP1;ratioP1;P1;durP2;ratioP2;P2;SDS_P1;SDS_P2;PMS_P1;PMS_P2;Temp;Humidity;BMP_temperature;BMP_pressure;BME280_temperature;BME280_humidity;BME280_pressure;Samples;Min_cycle;Max_cycle;Signal;HPM_P1;HPM_P2
2023/10/13 00:01:22;;;;;;;1999.90;999.90;;;14.60;99.90;;;;;;5043201;28;20108;-71
2023/10/13 00:03:48;;;;;;;1999.90;999.90;;;14.70;99.90;;;;;;5040628;28;20510;-71
2023/10/13 00:06:15;;;;;;;1999.90;999.90;;;14.70;99.90;;;;;;5049457;28;20041;-71
2023/10/13 00:08:41;;;;;;;1999.90;999.90;;;14.80;99.90;;;;;;5050086;28;20739;-71
2023/10/13 00:11:12;;;;;;;1999.90;999.90;;;14.80;99.90;;;;;;5048826;28;20045;-71
2023/10/13 00:13:44;;;;;;;1999.90;999.90;;;14.80;99.90;;;;;;5031498;28;20114;-72
2023/10/13 00:16:10;;;;;;;1999.90;999.90;;;14.90;99.90;;;;;;5046094;28;20047;-72
2023/10/13 00:18:45;;;;;;;1999.90;999.90;;;14.90;99.90;;;;;;5043746;28;20052;-71
2023/10/13 00:21:15;;;;;;;1999.90;999.90;;;15.00;99.90;;;;;;5042238;28;20067;-72
2023/10/13 00:23:54;;;;;;;1999.90;999.90;;;15.00;99.90;;;;;;5048030;28;20045;-72
2023/10/13 00:26:28;;;;;;;1999.90;999.90;;;15.00;99.90;;;;;;5037719;28;20498;-72
2023/10/13 00:31:43;;;;;;;1999.90;999.90;;;15.10;99.90;;;;;;5048121;28;20288;-72
2023/10/13 00:36:48;;;;;;;1999.90;999.90;;;15.20;99.90;;;;;;5062905;28;20495;-72
2023/10/13 00:39:17;;;;;;;1999.90;999.90;;;15.20;99.90;;;;;;5048947;28;20045;-71
2023/10/13 00:41:51;;;;;;;1999.90;999.90;;;15.30;99.90;;;;;;5049407;28;20106;-71
2023/10/13 00:44:17;;;;;;;1999.90;999.90;;;15.30;99.90;;;;;;5050849;28;20041;-71
2023/10/13 00:46:45;;;;;;;1999.90;999.90;;;15.30;99.90;;;;;;5047599;28;20044;-71
2023/10/13 00:49:15;;;;;;;1999.90;999.90;;;15.40;99.90;;;;;;5043420;28;20090;-71
2023/10/13 00:51:47;;;;;;;1999.90;999.90;;;15.50;99.90;;;;;;5050157;28;20040;-71
2023/10/13 00:54:16;;;;;;;1999.90;999.90;;;15.50;99.90;;;;;;5048429;28;20068;-71
2023/10/13 00:56:53;;;;;;;1999.90;999.90;;;15.50;99.90;;;;;;5048214;28;20444;-71
2023/10/13 00:59:23;;;;;;;1999.90;999.90;;;15.60;99.90;;;;;;5060814;28;20080;-71
2023/10/13 01:01:54;;;;;;;1999.90;999.90;;;15.60;99.90;;;;;;5052810;28;20404;-71
2023/10/13 01:04:20;;;;;;;1999.90;999.90;;;15.60;99.90;;;;;;5047279;28;20044;-71
2023/10/13 01:06:46;;;;;;;1999.90;999.90;;;15.70;99.90;;;;;;5031823;28;20067;-71
2023/10/13 01:11:44;;;;;;;1999.90;999.90;;;15.80;99.90;;;;;;5052511;28;20056;-71
2023/10/13 01:14:15;;;;;;;1999.90;999.90;;;15.80;99.90;;;;;;5061841;28;20108;-71
2023/10/13 01:16:43;;;;;;;1999.90;999.90;;;15.80;99.90;;;;;;5044649;28;20102;-71
2023/10/13 01:19:12;;;;;;;1999.90;999.90;;;15.90;99.90;;;;;;5048407;28;20100;-71
2023/10/13 01:21:40;;;;;;;1999.90;999.90;;;15.90;99.90;;;;;;5031116;28;20048;-71
2023/10/13 01:24:07;;;;;;;1999.90;999.90;;;16.00;99.90;;;;;;5048129;28;20062;-71
2023/10/13 01:26:38;;;;;;;1999.90;999.90;;;16.00;99.90;;;;;;5046732;28;20122;-71
2023/10/13 01:29:14;;;;;;;1999.90;999.90;;;16.00;99.90;;;;;;5031362;28;20044;-71
2023/10/13 01:31:46;;;;;;;1999.90;999.90;;;16.10;99.90;;;;;;5052178;28;20077;-71
2023/10/13 01:34:21;;;;;;;1999.90;999.90;;;16.10;99.90;;;;;;5033358;28;20048;-71
2023/10/13 01:36:51;;;;;;;1999.90;999.90;;;16.10;99.90;;;;;;5047066;28;20044;-71
2023/10/13 01:39:19;;;;;;;1999.90;999.90;;;16.10;99.90;;;;;;5048111;28;20051;-71
2023/10/13 01:41:45;;;;;;;1999.90;999.90;;;16.10;99.90;;;;;;5046806;28;20053;-71
2023/10/13 01:44:11;;;;;;;1999.90;999.90;;;16.10;99.90;;;;;;5037592;28;20056;-71
2023/10/13 01:46:38;;;;;;;1999.90;999.90;;;16.10;99.90;;;;;;5042795;28;20049;-71
2023/10/13 01:49:03;;;;;;;1999.90;999.90;;;16.20;99.90;;;;;;5042291;28;20079;-71
2023/10/13 01:51:29;;;;;;;1999.90;999.90;;;16.20;99.90;;;;;;5030107;28;20060;-71
2023/10/13 01:53:57;;;;;;;1999.90;999.90;;;16.30;99.90;;;;;;5047188;28;20099;-71
2023/10/13 01:56:24;;;;;;;1999.90;999.90;;;16.20;99.90;;;;;;5047753;28;20408;-71
2023/10/13 01:58:51;;;;;;;1999.90;999.90;;;16.30;99.90;;;;;;5046695;28;20196;-71
2023/10/13 02:01:26;;;;;;;1999.90;999.90;;;16.30;99.90;;;;;;5033666;28;20072;-72
2023/10/13 02:04:04;;;;;;;;;;;16.30;99.90;;;;;;5046997;28;20105;-71
2023/10/13 02:06:36;;;;;;;1999.90;999.90;;;16.30;99.90;;;;;;5048557;28;19926;-71
2023/10/13 02:09:17;;;;;;;1999.90;999.90;;;16.30;99.90;;;;;;5029666;28;20051;-71
2023/10/13 02:11:46;;;;;;;1999.90;999.90;;;16.30;99.90;;;;;;5017613;28;20041;-71
2023/10/13 02:14:16;;;;;;;1999.90;999.90;;;16.30;99.90;;;;;;5030268;28;20136;-71
2023/10/13 02:16:42;;;;;;;1999.90;999.90;;;16.30;99.90;;;;;;5035025;28;20063;-71
2023/10/13 02:19:08;;;;;;;1999.90;999.90;;;16.30;99.90;;;;;;5043773;28;20044;-71
2023/10/13 02:21:43;;;;;;;1999.90;999.90;;;16.30;99.90;;;;;;5031952;28;20045;-72
2023/10/13 02:24:13;;;;;;;1999.90;999.90;;;16.30;99.90;;;;;;5047066;28;20382;-71
2023/10/13 02:26:40;;;;;;;1999.90;999.90;;;16.30;99.90;;;;;;5045711;28;20051;-71
2023/10/13 02:29:08;;;;;;;1999.90;999.90;;;16.30;99.90;;;;;;5042347;28;20441;-71
2023/10/13 02:31:39;;;;;;;1999.90;999.90;;;16.40;99.90;;;;;;5054212;28;20042;-71
2023/10/13 02:34:08;;;;;;;1999.90;999.90;;;16.40;99.90;;;;;;5034976;28;20443;-71
2023/10/13 02:36:54;;;;;;;1999.90;999.90;;;16.40;99.90;;;;;;5046924;28;20072;-71
2023/10/13 02:39:26;;;;;;;1999.90;999.90;;;16.40;99.90;;;;;;5040179;28;20047;-70
2023/10/13 02:41:55;;;;;;;1999.90;999.90;;;16.40;99.90;;;;;;5064993;28;20072;-70
2023/10/13 02:44:31;;;;;;;1999.90;999.90;;;16.40;99.90;;;;;;5050015;28;20048;-70
2023/10/13 02:46:58;;;;;;;1999.90;999.90;;;16.40;99.90;;;;;;5033081;28;20044;-71
2023/10/13 02:49:26;;;;;;;1999.90;999.90;;;16.40;99.90;;;;;;5062299;28;20048;-70
2023/10/13 02:51:56;;;;;;;1999.90;999.90;;;16.40;99.90;;;;;;5048427;28;20045;-70
2023/10/13 02:54:21;;;;;;;1999.90;999.90;;;16.40;99.90;;;;;;5047238;28;20056;-71
2023/10/13 02:56:56;;;;;;;1999.90;999.90;;;16.40;99.90;;;;;;5039298;28;20045;-70
2023/10/13 02:59:39;;;;;;;1999.90;999.90;;;16.50;99.90;;;;;;5058870;28;20040;-70
2023/10/13 03:02:17;;;;;;;1999.90;999.90;;;16.50;99.90;;;;;;5058824;28;20501;-70
2023/10/13 03:04:44;;;;;;;1999.90;999.90;;;16.40;99.90;;;;;;5049191;28;20685;-70
2023/10/13 03:07:10;;;;;;;1999.90;999.90;;;16.50;99.90;;;;;;5033899;28;20409;-70
2023/10/13 03:09:37;;;;;;;1999.90;999.90;;;16.50;99.90;;;;;;5039999;28;20048;-71
2023/10/13 03:12:03;;;;;;;1999.90;999.90;;;16.40;99.90;;;;;;5050966;28;20041;-70
2023/10/13 03:14:33;;;;;;;1999.90;999.90;;;16.50;99.90;;;;;;5050519;28;20049;-70
2023/10/13 03:17:14;;;;;;;1999.90;999.90;;;16.50;99.90;;;;;;5041719;28;20094;-70
2023/10/13 03:19:50;;;;;;;1999.90;999.90;;;16.50;99.90;;;;;;5052912;28;20045;-70
2023/10/13 03:22:16;;;;;;;1999.90;999.90;;;16.50;99.90;;;;;;5059432;28;20033;-70
2023/10/13 03:24:47;;;;;;;1999.90;999.90;;;16.50;99.90;;;;;;5065945;28;20045;-70
2023/10/13 03:27:17;;;;;;;1999.90;999.90;;;16.50;99.90;;;;;;5044008;28;20044;-70
2023/10/13 03:29:46;;;;;;;1999.90;999.90;;;16.50;99.90;;;;;;5066136;28;20508;-70
2023/10/13 03:32:16;;;;;;;1999.90;999.90;;;16.50;99.90;;;;;;5049255;28;20489;-70
2023/10/13 03:37:19;;;;;;;1999.90;999.90;;;16.50;99.90;;;;;;5040410;28;20037;-71
2023/10/13 03:39:45;;;;;;;1999.90;999.90;;;16.50;99.90;;;;;;5049162;28;20071;-71
2023/10/13 03:42:29;;;;;;;1999.90;999.90;;;16.40;99.90;;;;;;5032904;28;20048;-70
2023/10/13 03:44:55;;;;;;;1999.90;999.90;;;16.50;99.90;;;;;;5021342;28;20082;-70
2023/10/13 03:47:26;;;;;;;1999.90;999.90;;;16.50;99.90;;;;;;5037388;28;20049;-70
2023/10/13 03:50:16;;;;;;;1999.90;999.90;;;16.50;99.90;;;;;;5062431;28;20141;-70
2023/10/13 03:52:41;;;;;;;1999.90;999.90;;;16.40;99.90;;;;;;5049383;28;20055;-70
2023/10/13 03:55:07;;;;;;;1999.90;999.90;;;16.40;99.90;;;;;;5048594;28;20128;-71
2023/10/13 03:57:37;;;;;;;1999.90;999.90;;;16.40;99.90;;;;;;5049334;28;20508;-70
2023/10/13 04:00:09;;;;;;;1999.90;999.90;;;16.40;99.90;;;;;;5047801;28;20505;-70
2023/10/13 04:02:36;;;;;;;1999.90;999.90;;;16.50;99.90;;;;;;5049368;28;20041;-70
2023/10/13 04:05:29;;;;;;;1999.90;999.90;;;16.40;99.90;;;;;;5053892;28;20045;-70
2023/10/13 04:16:14;;;;;;;1999.90;999.90;;;16.40;99.90;;;;;;5049241;28;20694;-70
2023/10/13 04:19:03;;;;;;;1999.90;999.90;;;16.40;99.90;;;;;;5051356;28;20476;-70
2023/10/13 04:30:10;;;;;;;1999.90;999.90;;;16.50;99.90;;;;;;5045958;28;20120;-71
2023/10/13 04:32:41;;;;;;;1999.90;999.90;;;16.50;99.90;;;;;;5044654;28;20041;-70
2023/10/13 04:35:25;;;;;;;1999.90;999.90;;;16.50;99.90;;;;;;5048069;28;20052;-71
2023/10/13 04:37:58;;;;;;;1999.90;999.90;;;16.50;99.90;;;;;;5048215;28;20040;-71
2023/10/13 04:40:24;;;;;;;1999.90;999.90;;;16.40;99.90;;;;;;5031107;28;20892;-70
2023/10/13 04:42:53;;;;;;;1999.90;999.90;;;16.50;99.90;;;;;;5050475;28;20049;-71
2023/10/13 04:48:12;;;;;;;1999.90;999.90;;;16.40;99.90;;;;;;5044209;28;20045;-70
2023/10/13 04:50:44;;;;;;;1999.90;999.90;;;16.40;99.90;;;;;;5027739;28;20048;-70
2023/10/13 05:45:07;;;;;;;;;;;16.20;99.90;;;;;;5029825;28;20051;-71
2023/10/13 05:48:02;;;;;;;1999.90;999.90;;;16.10;99.90;;;;;;5044177;28;20369;-71
2023/10/13 06:30:57;;;;;;;1999.90;999.90;;;16.00;99.90;;;;;;5037167;28;20041;-72
2023/10/13 06:33:28;;;;;;;1999.90;999.90;;;16.00;99.90;;;;;;5038193;28;20048;-72
2023/10/13 06:35:56;;;;;;;1999.90;999.90;;;16.00;99.90;;;;;;5017166;28;20045;-72
2023/10/13 06:38:22;;;;;;;1999.90;999.90;;;16.00;99.90;;;;;;5034049;28;20042;-71
2023/10/13 06:40:50;;;;;;;1999.90;999.90;;;16.00;99.90;;;;;;5042339;28;20061;-71
2023/10/13 06:43:16;;;;;;;1999.90;999.90;;;16.00;99.90;;;;;;5037127;28;20045;-72
2023/10/13 06:45:56;;;;;;;1999.90;999.90;;;16.10;99.90;;;;;;5020456;28;20045;-72
2023/10/13 06:48:24;;;;;;;1999.90;999.90;;;16.10;99.90;;;;;;5039143;28;20036;-72
2023/10/13 06:50:51;;;;;;;1999.90;999.90;;;16.10;99.90;;;;;;5041720;28;20042;-72
2023/10/13 06:53:17;;;;;;;1999.90;999.90;;;16.20;99.90;;;;;;5049649;28;20116;-72
2023/10/13 06:55:46;;;;;;;1999.90;999.90;;;16.20;99.90;;;;;;5049546;28;20171;-72
2023/10/13 06:58:17;;;;;;;1999.90;999.90;;;16.30;99.90;;;;;;5048025;28;20037;-72
2023/10/13 07:00:57;;;;;;;1999.90;999.90;;;16.30;99.90;;;;;;5041180;28;20045;-72
2023/10/13 07:03:24;;;;;;;1999.90;999.90;;;16.40;99.90;;;;;;5040206;28;20048;-73
2023/10/13 07:05:50;;;;;;;1999.90;999.90;;;16.40;99.90;;;;;;5038670;28;20041;-73
2023/10/13 07:08:19;;;;;;;1999.90;999.90;;;16.40;99.90;;;;;;5052595;28;20068;-73
2023/10/13 07:11:18;;;;;;;1999.90;999.90;;;16.40;99.90;;;;;;5041226;28;20048;-73
2023/10/13 07:13:50;;;;;;;1999.90;999.90;;;16.50;99.90;;;;;;5036841;28;20037;-73
2023/10/13 07:16:15;;;;;;;1999.90;999.90;;;16.40;99.90;;;;;;5045174;28;20045;-72
2023/10/13 07:18:52;;;;;;;1999.90;999.90;;;16.40;99.90;;;;;;5033934;28;20132;-73
2023/10/13 07:21:24;;;;;;;1999.90;999.90;;;16.50;99.90;;;;;;5042060;28;20513;-72
2023/10/13 07:24:01;;;;;;;1999.90;999.90;;;16.40;99.90;;;;;;5046417;28;20083;-71
2023/10/13 07:26:28;;;;;;;1999.90;999.90;;;16.50;99.90;;;;;;5046318;28;20044;-72
2023/10/13 07:28:54;;;;;;;1999.90;999.90;;;16.40;99.90;;;;;;5032126;28;20052;-72
2023/10/13 07:31:20;;;;;;;1999.90;999.90;;;16.40;99.90;;;;;;5047818;28;20041;-72
2023/10/13 07:33:47;;;;;;;1999.90;999.90;;;16.40;99.90;;;;;;5047972;28;20128;-72
2023/10/13 07:36:16;;;;;;;1999.90;999.90;;;16.40;99.90;;;;;;5032404;28;20063;-72
2023/10/13 07:38:49;;;;;;;1999.90;999.90;;;16.40;99.90;;;;;;5046005;28;20049;-73
2023/10/13 07:41:21;;;;;;;1999.90;999.90;;;16.40;99.90;;;;;;5066078;28;20383;-72
2023/10/13 07:43:48;;;;;;;1999.90;999.90;;;16.30;99.90;;;;;;5040524;28;20095;-74
2023/10/13 07:46:14;;;;;;;1999.90;999.90;;;16.30;99.90;;;;;;5033050;28;20045;-72
2023/10/13 07:48:40;;;;;;;1999.90;999.90;;;16.30;99.90;;;;;;5049961;28;20044;-72
2023/10/13 07:51:15;;;;;;;1999.90;999.90;;;16.30;99.90;;;;;;5048190;28;20048;-73
2023/10/13 07:53:48;;;;;;;1999.90;999.90;;;16.40;99.90;;;;;;5049139;28;20045;-73
2023/10/13 07:56:18;;;;;;;1999.90;999.90;;;16.30;99.90;;;;;;5049786;28;20044;-73
2023/10/13 07:58:52;;;;;;;1999.90;999.90;;;16.30;99.90;;;;;;5048890;28;20094;-72
2023/10/13 08:01:21;;;;;;;1999.90;999.90;;;16.30;99.90;;;;;;5032734;28;20044;-73
2023/10/13 08:03:47;;;;;;;1999.90;999.90;;;16.40;99.90;;;;;;5032512;28;20480;-72
2023/10/13 08:08:45;;;;;;;1999.90;999.90;;;16.30;99.90;;;;;;5058337;28;20045;-74
2023/10/13 08:11:26;;;;;;;1999.90;999.90;;;16.30;99.90;;;;;;5051559;28;20045;-72
2023/10/13 08:13:56;;;;;;;1999.90;999.90;;;16.40;99.90;;;;;;5029722;28;20037;-73
2023/10/13 08:16:45;;;;;;;1999.90;999.90;;;16.40;99.90;;;;;;5048640;28;20094;-73
2023/10/13 08:19:16;;;;;;;1999.90;999.90;;;16.40;99.90;;;;;;5045437;28;20504;-73
2023/10/13 08:21:52;;;;;;;1999.90;999.90;;;16.50;99.90;;;;;;5048291;28;20136;-72
2023/10/13 08:37:32;;;;;;;1999.90;999.90;;;16.60;99.90;;;;;;5056110;28;20127;-72
2023/10/13 08:45:20;;;;;;;1999.90;999.90;;;16.80;99.90;;;;;;5048957;28;20417;-73
2023/10/13 08:48:12;;;;;;;1999.90;999.90;;;16.80;99.90;;;;;;5038221;28;20043;-72
2023/10/13 08:53:31;;;;;;;1999.90;999.90;;;16.90;99.90;;;;;;5054944;28;20142;-73
2023/10/13 08:56:33;;;;;;;1999.90;999.90;;;17.00;99.90;;;;;;5048351;28;20086;-74
2023/10/13 08:59:05;;;;;;;1999.90;999.90;;;17.00;99.90;;;;;;5047125;28;20048;-74
2023/10/13 09:01:39;;;;;;;1999.90;999.90;;;17.10;99.90;;;;;;5023169;28;20052;-73
2023/10/13 09:07:15;;;;;;;1999.90;999.90;;;17.20;99.90;;;;;;5056844;28;19925;-73
2023/10/13 09:12:35;;;;;;;1999.90;999.90;;;17.40;99.90;;;;;;5040779;28;20518;-73
2023/10/13 09:25:33;;;;;;;1999.90;999.90;;;17.80;99.90;;;;;;5047487;28;20068;-76
2023/10/13 09:28:00;;;;;;;1999.90;999.90;;;17.80;99.90;;;;;;5040552;28;20044;-73
2023/10/13 09:30:28;;;;;;;1999.90;999.90;;;17.80;99.90;;;;;;5046140;28;20045;-73
2023/10/13 09:33:01;;;;;;;1999.90;999.90;;;18.00;99.90;;;;;;5047561;28;20041;-73
2023/10/13 09:35:31;;;;;;;1999.90;999.90;;;18.00;99.90;;;;;;5060870;28;20301;-73
2023/10/13 09:37:59;;;;;;;1999.90;999.90;;;18.10;99.90;;;;;;5064179;28;20070;-73
2023/10/13 09:40:25;;;;;;;1999.90;999.90;;;18.10;99.90;;;;;;5042355;28;20050;-73
2023/10/13 09:42:59;;;;;;;1999.90;999.90;;;18.20;99.90;;;;;;5055742;28;20497;-74
2023/10/13 09:45:38;;;;;;;1999.90;999.90;;;18.20;99.90;;;;;;5041493;28;20037;-73
2023/10/13 09:48:16;;;;;;;1999.90;999.90;;;18.30;99.90;;;;;;5053398;28;20053;-73
2023/10/13 09:50:44;;;;;;;1999.90;999.90;;;18.30;99.90;;;;;;5040333;28;20041;-73
2023/10/13 09:53:13;;;;;;;1999.90;999.90;;;18.40;99.90;;;;;;5059665;28;20048;-73
2023/10/13 09:55:50;;;;;;;1999.90;999.90;;;18.40;99.90;;;;;;5044102;28;20461;-73
2023/10/13 09:58:17;;;;;;;1999.90;999.90;;;18.50;99.90;;;;;;5054620;28;20055;-73
2023/10/13 10:01:09;;;;;;;1999.90;999.90;;;18.70;99.90;;;;;;5030131;28;20097;-74
2023/10/13 10:03:50;;;;;;;1999.90;999.90;;;18.70;99.90;;;;;;5053204;28;20089;-73
2023/10/13 10:06:28;;;;;;;1999.90;999.90;;;18.80;99.90;;;;;;5052241;28;20055;-73
2023/10/13 10:09:11;;;;;;;1999.90;999.90;;;18.80;99.90;;;;;;5044207;28;20041;-73
2023/10/13 10:12:00;;;;;;;1999.90;999.90;;;18.70;99.90;;;;;;5046280;28;20553;-73
2023/10/13 10:14:48;;;;;;;1999.90;999.90;;;18.80;99.90;;;;;;5044274;28;20111;-73
2023/10/13 10:17:14;;;;;;;1999.90;999.90;;;18.80;99.90;;;;;;5029997;28;20041;-73
2023/10/13 10:19:55;;;;;;;1999.90;999.90;;;18.80;99.90;;;;;;5042844;28;20409;-73
2023/10/13 10:22:38;;;;;;;1999.90;999.90;;;18.90;99.90;;;;;;5044730;28;20133;-73
2023/10/13 10:25:07;;;;;;;1999.90;999.90;;;18.90;99.90;;;;;;5045792;28;20424;-72
2023/10/13 10:27:34;;;;;;;1999.90;999.90;;;19.00;99.90;;;;;;5033082;28;20097;-73
2023/10/13 10:30:03;;;;;;;1999.90;999.90;;;19.00;99.90;;;;;;5029512;28;20032;-73
2023/10/13 10:33:11;;;;;;;1999.90;999.90;;;19.10;99.90;;;;;;5062365;28;20064;-72
2023/10/13 10:35:39;;;;;;;1999.90;999.90;;;19.20;99.90;;;;;;5045738;28;20059;-73
2023/10/13 10:40:58;;;;;;;1999.90;999.90;;;19.30;99.90;;;;;;5045591;28;20065;-72
2023/10/13 10:43:26;;;;;;;1999.90;999.90;;;19.30;99.90;;;;;;5052360;28;20132;-72
2023/10/13 10:45:52;;;;;;;1999.90;999.90;;;19.40;99.90;;;;;;5053547;28;20545;-73
2023/10/13 10:48:19;;;;;;;1999.90;999.90;;;19.40;99.90;;;;;;5046619;28;20469;-73
2023/10/13 10:50:53;;;;;;;1999.90;999.90;;;19.50;99.90;;;;;;5028787;28;20156;-72
2023/10/13 10:53:32;;;;;;;1999.90;999.90;;;19.50;99.90;;;;;;5045473;28;20056;-73
2023/10/13 10:56:05;;;;;;;1999.90;999.90;;;19.50;99.90;;;;;;5052335;28;20056;-73
2023/10/13 10:58:43;;;;;;;1999.90;999.90;;;19.50;99.90;;;;;;5033971;28;20055;-72
2023/10/13 11:01:19;;;;;;;1999.90;999.90;;;19.60;99.90;;;;;;5037478;28;20045;-73
2023/10/13 11:03:58;;;;;;;1999.90;999.90;;;19.70;99.90;;;;;;5049473;28;20124;-73
2023/10/13 11:06:26;;;;;;;1999.90;999.90;;;19.80;99.90;;;;;;5044731;28;20147;-73
2023/10/13 11:09:03;;;;;;;1999.90;999.90;;;19.80;99.90;;;;;;5025960;28;20041;-72
2023/10/13 11:11:34;;;;;;;1999.90;999.90;;;19.80;99.90;;;;;;5061108;28;20040;-73
2023/10/13 11:14:17;;;;;;;1999.90;999.90;;;19.90;99.90;;;;;;5026341;28;20047;-73
2023/10/13 11:16:50;;;;;;;1999.90;999.90;;;19.90;99.90;;;;;;5032616;28;20045;-73
2023/10/13 11:19:40;;;;;;;1999.90;999.90;;;19.90;99.90;;;;;;5021468;28;20144;-73
2023/10/13 11:22:42;;;;;;;1999.90;999.90;;;19.80;99.90;;;;;;5035341;28;20045;-73
2023/10/13 11:25:10;;;;;;;1999.90;999.90;;;19.80;99.90;;;;;;5057490;28;20152;-73
2023/10/13 11:27:55;;;;;;;1999.90;999.90;;;19.80;99.90;;;;;;5060440;28;20041;-72
2023/10/13 11:33:07;;;;;;;1999.90;999.90;;;19.90;99.90;;;;;;5045051;28;19920;-73
2023/10/13 11:35:55;;;;;;;1999.90;999.90;;;19.90;99.90;;;;;;5045071;28;20094;-73
2023/10/13 11:38:33;;;;;;;1999.90;999.90;;;19.90;99.90;;;;;;5038739;28;20041;-73
2023/10/13 11:43:27;;;;;;;1999.90;999.90;;;19.50;99.90;;;;;;5038693;28;20461;-72
2023/10/13 11:46:12;;;;;;;1999.90;999.90;;;19.10;99.90;;;;;;5025828;28;20087;-72
2023/10/13 11:48:41;;;;;;;1999.90;999.90;;;18.90;99.90;;;;;;5039486;28;20041;-73
2023/10/13 11:51:09;;;;;;;1999.90;999.90;;;18.90;99.90;;;;;;5045893;28;20060;-73
2023/10/13 11:53:35;;;;;;;1999.90;999.90;;;18.80;99.90;;;;;;5027536;28;20041;-72
2023/10/13 11:56:10;;;;;;;1999.90;999.90;;;18.80;99.90;;;;;;5023449;28;20512;-71
2023/10/13 11:58:37;;;;;;;1999.90;999.90;;;18.80;99.90;;;;;;5050277;28;20041;-73
2023/10/13 12:09:41;;;;;;;1999.90;999.90;;;18.90;99.90;;;;;;5037009;28;20048;-73
2023/10/13 12:12:00;;;;;;;1999.90;999.90;;;19.00;99.90;;;;;;5043613;28;20041;-73
2023/10/13 12:14:31;;;;;;;1999.90;999.90;;;19.10;99.90;;;;;;5049765;28;20063;-73
2023/10/13 12:17:04;;;;;;;1999.90;999.90;;;19.20;99.90;;;;;;5047913;28;20513;-72
2023/10/13 12:19:30;;;;;;;1999.90;999.90;;;19.30;99.90;;;;;;5038093;28;20052;-72
2023/10/13 12:21:56;;;;;;;1999.90;999.90;;;19.30;99.90;;;;;;5037360;28;20046;-73
2023/10/13 12:24:53;;;;;;;1999.90;999.90;;;19.30;99.90;;;;;;5046968;28;20396;-73
2023/10/13 12:27:19;;;;;;;1999.90;999.90;;;19.40;99.90;;;;;;5054915;28;20050;-72
2023/10/13 12:29:46;;;;;;;1999.90;999.90;;;19.40;99.90;;;;;;5041707;28;20026;-73
2023/10/13 12:32:12;;;;;;;1999.90;999.90;;;19.30;99.90;;;;;;5053925;28;20041;-72
2023/10/13 12:35:58;;;;;;;1999.90;999.90;;;19.30;99.90;;;;;;5043181;28;20056;-73
2023/10/13 12:37:38;;;;;;;1999.90;999.90;;;19.30;99.90;;;;;;5035539;28;20080;-72
2023/10/13 12:53:52;;;;;;;1999.90;999.90;;;18.90;99.90;;;;;;5039370;28;20508;-71
2023/10/13 12:56:25;;;;;;;1999.90;999.90;;;18.90;99.90;;;;;;5043983;28;20049;-72
2023/10/13 12:58:52;;;;;;;1999.90;999.90;;;18.80;99.90;;;;;;5033306;28;20049;-72
2023/10/13 13:01:20;;;;;;;1999.90;999.90;;;18.70;99.90;;;;;;5019991;28;20049;-72
2023/10/13 13:03:46;;;;;;;1999.90;999.90;;;18.70;99.90;;;;;;5030538;28;20139;-71
2023/10/13 13:06:17;;;;;;;1999.90;999.90;;;18.60;99.90;;;;;;5039309;28;20040;-73
2023/10/13 13:08:44;;;;;;;1999.90;999.90;;;18.60;99.90;;;;;;5048503;28;20103;-72
2023/10/13 13:11:10;;;;;;;1999.90;999.90;;;18.50;99.90;;;;;;5029611;28;20120;-72
2023/10/13 13:13:36;;;;;;;1999.90;999.90;;;18.50;99.90;;;;;;5021961;28;20040;-72
2023/10/13 13:16:03;;;;;;;1999.90;999.90;;;18.40;99.90;;;;;;5038681;28;20508;-72
2023/10/13 13:18:29;;;;;;;1999.90;999.90;;;18.40;99.90;;;;;;5028650;28;20072;-72
2023/10/13 13:20:55;;;;;;;1999.90;999.90;;;18.30;99.90;;;;;;5037420;28;20076;-72
2023/10/13 13:23:25;;;;;;;1999.90;999.90;;;18.30;99.90;;;;;;5047633;28;20044;-72
2023/10/13 13:25:51;;;;;;;1999.90;999.90;;;18.40;99.90;;;;;;5039104;28;20049;-72
2023/10/13 13:28:17;;;;;;;1999.90;999.90;;;18.30;99.90;;;;;;5058776;28;20068;-72
2023/10/13 13:30:44;;;;;;;1999.90;999.90;;;18.30;99.90;;;;;;5047097;28;20516;-72
2023/10/13 13:33:12;;;;;;;1999.90;999.90;;;18.30;99.90;;;;;;5030602;28;20037;-72
2023/10/13 13:35:42;;;;;;;1999.90;999.90;;;18.30;99.90;;;;;;5047320;28;20566;-72
2023/10/13 13:38:13;;;;;;;1999.90;999.90;;;18.30;99.90;;;;;;5047504;28;20048;-72
2023/10/13 13:40:39;;;;;;;1999.90;999.90;;;18.20;99.90;;;;;;5031152;28;20103;-71
2023/10/13 13:43:06;;;;;;;1999.90;999.90;;;18.30;99.90;;;;;;5046834;28;20421;-72
2023/10/13 13:45:34;;;;;;;1999.90;999.90;;;18.30;99.90;;;;;;5047654;28;20049;-72
2023/10/13 13:48:03;;;;;;;1999.90;999.90;;;18.30;99.90;;;;;;5046091;28;20398;-72
2023/10/13 13:50:32;;;;;;;1999.90;999.90;;;18.30;99.90;;;;;;5038243;28;20068;-71
2023/10/13 13:52:59;;;;;;;1999.90;999.90;;;18.30;99.90;;;;;;5043817;28;20045;-72
2023/10/13 13:55:28;;;;;;;1999.90;999.90;;;18.30;99.90;;;;;;5046439;28;20080;-74
2023/10/13 13:57:58;;;;;;;1999.90;999.90;;;18.40;99.90;;;;;;5043257;28;20092;-72
2023/10/13 14:00:37;;;;;;;1999.90;999.90;;;18.40;99.90;;;;;;5045358;28;20043;-73
2023/10/13 14:03:12;;;;;;;1999.90;999.90;;;18.30;99.90;;;;;;5047237;28;20048;-72
2023/10/13 14:05:45;;;;;;;1999.90;999.90;;;18.40;99.90;;;;;;5045970;28;20049;-72
2023/10/13 14:08:15;;;;;;;1999.90;999.90;;;18.40;99.90;;;;;;5045579;28;20037;-72
2023/10/13 14:14:11;;;;;;;1999.90;999.90;;;18.40;99.90;;;;;;5062516;28;20049;-72
2023/10/13 14:16:16;;;;;;;1999.90;999.90;;;18.50;99.90;;;;;;5030987;28;20416;-72
2023/10/13 14:18:49;;;;;;;1999.90;999.90;;;18.50;99.90;;;;;;5047323;28;20083;-71
2023/10/13 14:21:16;;;;;;;1999.90;999.90;;;18.50;99.90;;;;;;5045956;28;20044;-72
2023/10/13 14:23:47;;;;;;;1999.90;999.90;;;18.50;99.90;;;;;;5039726;28;20501;-72
2023/10/13 14:26:13;;;;;;;1999.90;999.90;;;18.60;99.90;;;;;;5028216;28;20060;-72
2023/10/13 14:28:50;;;;;;;1999.90;999.90;;;18.60;99.90;;;;;;5025084;28;20516;-72
2023/10/13 14:31:18;;;;;;;1999.90;999.90;;;18.70;99.90;;;;;;5043356;28;20128;-72
2023/10/13 14:33:46;;;;;;;1999.90;999.90;;;18.70;99.90;;;;;;5043665;28;20175;-72
2023/10/13 14:36:11;;;;;;;1999.90;999.90;;;18.70;99.90;;;;;;5032462;28;20044;-73
2023/10/13 14:38:37;;;;;;;1999.90;999.90;;;18.70;99.90;;;;;;5047594;28;20128;-72
2023/10/13 14:41:03;;;;;;;1999.90;999.90;;;18.70;99.90;;;;;;5034278;28;20119;-72
2023/10/13 14:43:28;;;;;;;1999.90;999.90;;;18.70;99.90;;;;;;5033348;28;20540;-72
2023/10/13 14:45:54;;;;;;;1999.90;999.90;;;18.70;99.90;;;;;;5045220;28;20056;-72
2023/10/13 14:48:22;;;;;;;1999.90;999.90;;;18.70;99.90;;;;;;5039239;28;20045;-72
2023/10/13 14:50:48;;;;;;;1999.90;999.90;;;18.70;99.90;;;;;;5033150;28;20037;-72
2023/10/13 14:53:17;;;;;;;1999.90;999.90;;;18.70;99.90;;;;;;5032715;28;20052;-73
2023/10/13 14:55:42;;;;;;;1999.90;999.90;;;18.60;99.90;;;;;;5036417;28;20574;-72
2023/10/13 14:58:08;;;;;;;1999.90;999.90;;;18.60;99.90;;;;;;5034692;28;20041;-72
2023/10/13 15:00:34;;;;;;;1999.90;999.90;;;18.60;99.90;;;;;;5038196;28;20052;-72
2023/10/13 15:03:01;;;;;;;1999.90;999.90;;;18.60;99.90;;;;;;5031165;28;20053;-72
2023/10/13 15:05:29;;;;;;;1999.90;999.90;;;18.60;99.90;;;;;;5050184;28;20426;-72
2023/10/13 15:07:55;;;;;;;1999.90;999.90;;;18.60;99.90;;;;;;5039497;28;20076;-72
2023/10/13 15:10:21;;;;;;;1999.90;999.90;;;18.60;99.90;;;;;;5041892;28;20033;-72
2023/10/13 15:12:48;;;;;;;1999.90;999.90;;;18.70;99.90;;;;;;5042058;28;20103;-72
2023/10/13 15:15:15;;;;;;;1999.90;999.90;;;18.70;99.90;;;;;;5051934;28;20555;-72
2023/10/13 15:17:44;;;;;;;1999.90;999.90;;;18.70;99.90;;;;;;5036922;28;20040;-73
2023/10/13 15:20:15;;;;;;;1999.90;999.90;;;18.60;99.90;;;;;;5044302;28;20451;-72
2023/10/13 15:22:47;;;;;;;1999.90;999.90;;;18.50;99.90;;;;;;5052375;28;20052;-72
2023/10/13 15:25:17;;;;;;;1999.90;999.90;;;18.40;99.90;;;;;;5050226;28;20501;-72
2023/10/13 15:27:45;;;;;;;1999.90;999.90;;;18.30;99.90;;;;;;5052912;28;20086;-73
2023/10/13 15:30:20;;;;;;;1999.90;999.90;;;18.30;99.90;;;;;;5049782;28;20098;-72
2023/10/13 15:32:48;;;;;;;1999.90;999.90;;;18.30;99.90;;;;;;5042623;28;20052;-73
2023/10/13 15:35:14;;;;;;;1999.90;999.90;;;18.30;99.90;;;;;;5048375;28;20041;-72
2023/10/13 15:37:41;;;;;;;1999.90;999.90;;;18.20;99.90;;;;;;5063681;28;20045;-72